sensor_id;sensor_type;location;lat;lon;timestamp;P1;durP1;ratioP1;P2;durP2;ratioP2
24305;SDS011;12423;48.768;8.850;2022-10-16T00:01:19;2.03;;;0.80;;
24305;SDS011;12423;48.768;8.850;2022-10-16T00:03:22;2.28;;;0.90;;
24305;SDS011;12423;48.768;8.850;2022-10-16T00:05:23;3.00;;;0.90;;
24305;SDS011;12423;48.768;8.850;2022-10-16T00:07:24;2.30;;;0.93;;
24305;SDS011;12423;48.768;8.850;2022-10-16T00:09:25;7.28;;;1.48;;
24305;SDS011;12423;48.768;8.850;2022-10-16T00:11:27;3.17;;;1.15;;
24305;SDS011;12423;48.768;8.850;2022-10-16T00:13:34;1.40;;;0.82;;
24305;SDS011;12423;48.768;8.850;2022-10-16T00:15:36;4.25;;;1.10;;
24305;SDS011;12423;48.768;8.850;2022-10-16T00:17:37;2.97;;;1.15;;
24305;SDS011;12423;48.768;8.850;2022-10-16T00:19:38;6.60;;;0.80;;
24305;SDS011;12423;48.768;8.850;2022-10-16T00:21:39;2.10;;;0.90;;
24305;SDS011;12423;48.768;8.850;2022-10-16T00:23:41;3.88;;;0.82;;
24305;SDS011;12423;48.768;8.850;2022-10-16T00:25:42;1.38;;;0.80;;
24305;SDS011;12423;48.768;8.850;2022-10-16T00:27:43;3.17;;;0.88;;
24305;SDS011;12423;48.768;8.850;2022-10-16T00:29:44;2.28;;;0.82;;
24305;SDS011;12423;48.768;8.850;2022-10-16T00:31:45;2.67;;;1.00;;
24305;SDS011;12423;48.768;8.850;2022-10-16T00:33:46;6.47;;;0.90;;
24305;SDS011;12423;48.768;8.850;2022-10-16T00:35:48;2.70;;;1.00;;
24305;SDS011;12423;48.768;8.850;2022-10-16T00:37:49;1.95;;;0.88;;
24305;SDS011;12423;48.768;8.850;2022-10-16T00:39:50;3.60;;;1.00;;
24305;SDS011;12423;48.768;8.850;2022-10-16T00:41:51;3.20;;;0.93;;
24305;SDS011;12423;48.768;8.850;2022-10-16T00:43:55;1.95;;;1.02;;
24305;SDS011;12423;48.768;8.850;2022-10-16T00:45:59;4.22;;;1.10;;
24305;SDS011;12423;48.768;8.850;2022-10-16T00:48:02;1.55;;;0.77;;
24305;SDS011;12423;48.768;8.850;2022-10-16T00:52:33;3.95;;;1.00;;
24305;SDS011;12423;48.768;8.850;2022-10-16T00:54:35;1.77;;;0.80;;
24305;SDS011;12423;48.768;8.850;2022-10-16T00:56:36;0.95;;;0.68;;
24305;SDS011;12423;48.768;8.850;2022-10-16T00:58:37;4.55;;;1.00;;
24305;SDS011;12423;48.768;8.850;2022-10-16T01:00:39;1.73;;;0.80;;
24305;SDS011;12423;48.768;8.850;2022-10-16T01:02:39;2.80;;;0.80;;
24305;SDS011;12423;48.768;8.850;2022-10-16T01:04:45;2.83;;;0.90;;
24305;SDS011;12423;48.768;8.850;2022-10-16T01:07:02;3.83;;;0.90;;
24305;SDS011;12423;48.768;8.850;2022-10-16T01:11:41;2.25;;;0.90;;
24305;SDS011;12423;48.768;8.850;2022-10-16T01:13:51;4.75;;;0.80;;
24305;SDS011;12423;48.768;8.850;2022-10-16T01:16:05;4.18;;;0.90;;
24305;SDS011;12423;48.768;8.850;2022-10-16T01:18:14;1.83;;;0.60;;
24305;SDS011;12423;48.768;8.850;2022-10-16T01:20:24;4.72;;;1.20;;
24305;SDS011;12423;48.768;8.850;2022-10-16T01:24:46;2.50;;;0.88;;
24305;SDS011;12423;48.768;8.850;2022-10-16T01:27:05;1.42;;;0.70;;
24305;SDS011;12423;48.768;8.850;2022-10-16T01:29:08;2.20;;;0.93;;
24305;SDS011;12423;48.768;8.850;2022-10-16T01:31:17;1.75;;;0.82;;
24305;SDS011;12423;48.768;8.850;2022-10-16T01:33:21;2.88;;;0.82;;
24305;SDS011;12423;48.768;8.850;2022-10-16T01:37:40;5.00;;;1.05;;
24305;SDS011;12423;48.768;8.850;2022-10-16T01:39:46;4.20;;;1.55;;
24305;SDS011;12423;48.768;8.850;2022-10-16T01:44:31;3.17;;;0.90;;
24305;SDS011;12423;48.768;8.850;2022-10-16T01:46:35;4.43;;;1.20;;
24305;SDS011;12423;48.768;8.850;2022-10-16T01:48:38;3.25;;;0.70;;
24305;SDS011;12423;48.768;8.850;2022-10-16T01:50:40;1.33;;;0.80;;
24305;SDS011;12423;48.768;8.850;2022-10-16T01:52:45;3.47;;;0.95;;
24305;SDS011;12423;48.768;8.850;2022-10-16T01:54:49;4.20;;;1.15;;
24305;SDS011;12423;48.768;8.850;2022-10-16T01:56:53;1.10;;;0.70;;
24305;SDS011;12423;48.768;8.850;2022-10-16T01:59:04;2.70;;;0.95;;
24305;SDS011;12423;48.768;8.850;2022-10-16T02:01:10;2.78;;;0.88;;
24305;SDS011;12423;48.768;8.850;2022-10-16T02:03:14;8.73;;;1.63;;
24305;SDS011;12423;48.768;8.850;2022-10-16T02:05:22;4.07;;;1.13;;
24305;SDS011;12423;48.768;8.850;2022-10-16T02:07:28;2.25;;;1.00;;
24305;SDS011;12423;48.768;8.850;2022-10-16T02:09:30;2.65;;;0.80;;
24305;SDS011;12423;48.768;8.850;2022-10-16T02:11:33;1.95;;;0.90;;
24305;SDS011;12423;48.768;8.850;2022-10-16T02:16:07;1.48;;;0.85;;
24305;SDS011;12423;48.768;8.850;2022-10-16T02:18:10;3.22;;;0.90;;
24305;SDS011;12423;48.768;8.850;2022-10-16T02:20:12;3.85;;;1.23;;
24305;SDS011;12423;48.768;8.850;2022-10-16T02:22:27;4.22;;;1.10;;
24305;SDS011;12423;48.768;8.850;2022-10-16T02:24:33;1.55;;;0.85;;
24305;SDS011;12423;48.768;8.850;2022-10-16T02:26:54;2.17;;;1.05;;
24305;SDS011;12423;48.768;8.850;2022-10-16T02:29:01;3.20;;;1.10;;
24305;SDS011;12423;48.768;8.850;2022-10-16T02:31:08;1.92;;;1.02;;
24305;SDS011;12423;48.768;8.850;2022-10-16T02:33:13;3.10;;;1.27;;
24305;SDS011;12423;48.768;8.850;2022-10-16T02:35:17;7.85;;;1.20;;
24305;SDS011;12423;48.768;8.850;2022-10-16T02:37:20;3.20;;;1.20;;
24305;SDS011;12423;48.768;8.850;2022-10-16T02:39:22;3.70;;;1.27;;
24305;SDS011;12423;48.768;8.850;2022-10-16T02:41:23;3.92;;;1.30;;
24305;SDS011;12423;48.768;8.850;2022-10-16T02:43:24;7.28;;;1.10;;
24305;SDS011;12423;48.768;8.850;2022-10-16T02:45:26;5.95;;;1.13;;
24305;SDS011;12423;48.768;8.850;2022-10-16T02:47:27;4.40;;;1.20;;
24305;SDS011;12423;48.768;8.850;2022-10-16T02:49:28;2.55;;;1.30;;
24305;SDS011;12423;48.768;8.850;2022-10-16T02:51:29;4.18;;;1.10;;
24305;SDS011;12423;48.768;8.850;2022-10-16T02:53:30;4.38;;;1.20;;
24305;SDS011;12423;48.768;8.850;2022-10-16T02:55:31;2.50;;;1.20;;
24305;SDS011;12423;48.768;8.850;2022-10-16T02:57:33;2.80;;;1.10;;
24305;SDS011;12423;48.768;8.850;2022-10-16T02:59:34;3.65;;;1.17;;
24305;SDS011;12423;48.768;8.850;2022-10-16T03:01:35;2.63;;;1.17;;
24305;SDS011;12423;48.768;8.850;2022-10-16T03:03:36;2.70;;;1.00;;
24305;SDS011;12423;48.768;8.850;2022-10-16T03:05:37;4.50;;;1.20;;
24305;SDS011;12423;48.768;8.850;2022-10-16T03:07:38;2.85;;;1.10;;
24305;SDS011;12423;48.768;8.850;2022-10-16T03:09:39;1.83;;;1.00;;
24305;SDS011;12423;48.768;8.850;2022-10-16T03:11:40;3.08;;;1.25;;
24305;SDS011;12423;48.768;8.850;2022-10-16T03:13:41;4.57;;;1.30;;
24305;SDS011;12423;48.768;8.850;2022-10-16T03:15:43;3.47;;;1.30;;
24305;SDS011;12423;48.768;8.850;2022-10-16T03:17:44;6.60;;;1.10;;
24305;SDS011;12423;48.768;8.850;2022-10-16T03:19:45;2.42;;;1.10;;
24305;SDS011;12423;48.768;8.850;2022-10-16T03:21:46;5.38;;;1.25;;
24305;SDS011;12423;48.768;8.850;2022-10-16T03:23:47;4.18;;;1.50;;
24305;SDS011;12423;48.768;8.850;2022-10-16T03:25:48;4.70;;;1.30;;
24305;SDS011;12423;48.768;8.850;2022-10-16T03:27:49;4.95;;;1.75;;
24305;SDS011;12423;48.768;8.850;2022-10-16T03:29:50;3.88;;;1.17;;
24305;SDS011;12423;48.768;8.850;2022-10-16T03:31:51;2.70;;;1.20;;
24305;SDS011;12423;48.768;8.850;2022-10-16T03:33:52;2.50;;;1.00;;
24305;SDS011;12423;48.768;8.850;2022-10-16T03:35:53;2.28;;;1.10;;
24305;SDS011;12423;48.768;8.850;2022-10-16T03:37:55;2.92;;;1.20;;
24305;SDS011;12423;48.768;8.850;2022-10-16T03:39:57;3.22;;;1.10;;
24305;SDS011;12423;48.768;8.850;2022-10-16T03:41:58;3.72;;;1.17;;
24305;SDS011;12423;48.768;8.850;2022-10-16T03:43:59;2.53;;;1.10;;
24305;SDS011;12423;48.768;8.850;2022-10-16T03:45:59;3.35;;;1.08;;
24305;SDS011;12423;48.768;8.850;2022-10-16T03:48:00;2.17;;;0.95;;
24305;SDS011;12423;48.768;8.850;2022-10-16T03:50:03;2.63;;;1.20;;
24305;SDS011;12423;48.768;8.850;2022-10-16T03:52:05;2.60;;;1.00;;
24305;SDS011;12423;48.768;8.850;2022-10-16T03:54:06;2.80;;;1.10;;
24305;SDS011;12423;48.768;8.850;2022-10-16T03:56:07;3.42;;;1.40;;
24305;SDS011;12423;48.768;8.850;2022-10-16T03:58:08;1.65;;;1.10;;
24305;SDS011;12423;48.768;8.850;2022-10-16T04:00:09;2.80;;;1.13;;
24305;SDS011;12423;48.768;8.850;2022-10-16T04:02:14;1.95;;;0.93;;
24305;SDS011;12423;48.768;8.850;2022-10-16T04:04:15;1.80;;;0.90;;
24305;SDS011;12423;48.768;8.850;2022-10-16T04:06:16;3.80;;;1.23;;
24305;SDS011;12423;48.768;8.850;2022-10-16T04:08:17;1.67;;;0.93;;
24305;SDS011;12423;48.768;8.850;2022-10-16T04:10:18;3.40;;;1.10;;
24305;SDS011;12423;48.768;8.850;2022-10-16T04:12:19;2.13;;;0.77;;
24305;SDS011;12423;48.768;8.850;2022-10-16T04:14:20;1.30;;;0.80;;
24305;SDS011;12423;48.768;8.850;2022-10-16T04:16:21;8.73;;;3.28;;
24305;SDS011;12423;48.768;8.850;2022-10-16T04:18:22;1.80;;;0.93;;
24305;SDS011;12423;48.768;8.850;2022-10-16T04:20:24;4.28;;;1.10;;
24305;SDS011;12423;48.768;8.850;2022-10-16T04:22:25;1.95;;;1.10;;
24305;SDS011;12423;48.768;8.850;2022-10-16T04:24:26;3.08;;;1.10;;
24305;SDS011;12423;48.768;8.850;2022-10-16T04:26:26;4.97;;;1.20;;
24305;SDS011;12423;48.768;8.850;2022-10-16T04:28:28;2.45;;;1.08;;
24305;SDS011;12423;48.768;8.850;2022-10-16T04:30:29;2.10;;;1.00;;
24305;SDS011;12423;48.768;8.850;2022-10-16T04:32:30;2.13;;;1.10;;
24305;SDS011;12423;48.768;8.850;2022-10-16T04:34:31;3.45;;;0.95;;
24305;SDS011;12423;48.768;8.850;2022-10-16T04:36:32;3.03;;;1.23;;
24305;SDS011;12423;48.768;8.850;2022-10-16T04:38:33;3.40;;;0.80;;
24305;SDS011;12423;48.768;8.850;2022-10-16T04:40:34;3.53;;;1.33;;
24305;SDS011;12423;48.768;8.850;2022-10-16T04:42:37;1.98;;;1.10;;
24305;SDS011;12423;48.768;8.850;2022-10-16T04:44:38;1.67;;;0.93;;
24305;SDS011;12423;48.768;8.850;2022-10-16T04:46:39;2.00;;;0.93;;
24305;SDS011;12423;48.768;8.850;2022-10-16T04:48:40;2.20;;;1.17;;
24305;SDS011;12423;48.768;8.850;2022-10-16T04:50:41;3.30;;;1.25;;
24305;SDS011;12423;48.768;8.850;2022-10-16T04:52:42;3.47;;;0.90;;
24305;SDS011;12423;48.768;8.850;2022-10-16T04:54:43;2.08;;;0.90;;
24305;SDS011;12423;48.768;8.850;2022-10-16T04:56:45;3.80;;;0.88;;
24305;SDS011;12423;48.768;8.850;2022-10-16T04:58:51;1.63;;;0.70;;
24305;SDS011;12423;48.768;8.850;2022-10-16T05:00:52;6.05;;;1.15;;
24305;SDS011;12423;48.768;8.850;2022-10-16T05:02:53;2.17;;;0.80;;
24305;SDS011;12423;48.768;8.850;2022-10-16T05:04:59;1.38;;;0.75;;
24305;SDS011;12423;48.768;8.850;2022-10-16T05:07:00;1.90;;;0.90;;
24305;SDS011;12423;48.768;8.850;2022-10-16T05:09:02;4.75;;;1.33;;
24305;SDS011;12423;48.768;8.850;2022-10-16T05:11:03;2.22;;;0.90;;
24305;SDS011;12423;48.768;8.850;2022-10-16T05:13:04;2.72;;;1.00;;
24305;SDS011;12423;48.768;8.850;2022-10-16T05:15:05;1.58;;;0.90;;
24305;SDS011;12423;48.768;8.850;2022-10-16T05:17:07;3.65;;;0.95;;
24305;SDS011;12423;48.768;8.850;2022-10-16T05:19:08;2.90;;;0.88;;
24305;SDS011;12423;48.768;8.850;2022-10-16T05:21:09;2.58;;;1.10;;
24305;SDS011;12423;48.768;8.850;2022-10-16T05:23:10;4.13;;;1.38;;
24305;SDS011;12423;48.768;8.850;2022-10-16T05:25:12;1.90;;;1.00;;
24305;SDS011;12423;48.768;8.850;2022-10-16T05:27:13;2.40;;;1.02;;
24305;SDS011;12423;48.768;8.850;2022-10-16T05:29:19;2.08;;;0.95;;
24305;SDS011;12423;48.768;8.850;2022-10-16T05:31:20;3.25;;;1.67;;
24305;SDS011;12423;48.768;8.850;2022-10-16T05:33:22;5.10;;;1.45;;
24305;SDS011;12423;48.768;8.850;2022-10-16T05:35:25;4.10;;;0.95;;
24305;SDS011;12423;48.768;8.850;2022-10-16T05:37:29;4.50;;;1.40;;
24305;SDS011;12423;48.768;8.850;2022-10-16T05:39:30;5.35;;;1.60;;
24305;SDS011;12423;48.768;8.850;2022-10-16T05:41:31;4.20;;;1.38;;
24305;SDS011;12423;48.768;8.850;2022-10-16T05:43:32;3.83;;;1.50;;
24305;SDS011;12423;48.768;8.850;2022-10-16T05:45:33;4.05;;;1.48;;
24305;SDS011;12423;48.768;8.850;2022-10-16T05:47:34;3.25;;;1.40;;
24305;SDS011;12423;48.768;8.850;2022-10-16T05:49:35;5.32;;;1.40;;
24305;SDS011;12423;48.768;8.850;2022-10-16T05:51:36;4.07;;;1.30;;
24305;SDS011;12423;48.768;8.850;2022-10-16T05:53:38;3.10;;;1.40;;
24305;SDS011;12423;48.768;8.850;2022-10-16T05:55:40;5.82;;;1.52;;
24305;SDS011;12423;48.768;8.850;2022-10-16T05:57:41;4.05;;;1.33;;
24305;SDS011;12423;48.768;8.850;2022-10-16T05:59:42;2.03;;;1.00;;
24305;SDS011;12423;48.768;8.850;2022-10-16T06:01:43;3.67;;;1.30;;
24305;SDS011;12423;48.768;8.850;2022-10-16T06:03:44;4.07;;;1.33;;
24305;SDS011;12423;48.768;8.850;2022-10-16T06:05:45;2.90;;;1.52;;
24305;SDS011;12423;48.768;8.850;2022-10-16T06:07:46;2.85;;;1.23;;
24305;SDS011;12423;48.768;8.850;2022-10-16T06:09:48;3.63;;;1.20;;
24305;SDS011;12423;48.768;8.850;2022-10-16T06:11:52;6.30;;;3.95;;
24305;SDS011;12423;48.768;8.850;2022-10-16T06:13:54;3.90;;;1.55;;
24305;SDS011;12423;48.768;8.850;2022-10-16T06:15:58;3.10;;;1.80;;
24305;SDS011;12423;48.768;8.850;2022-10-16T06:18:00;3.33;;;1.67;;
24305;SDS011;12423;48.768;8.850;2022-10-16T06:20:01;4.43;;;1.30;;
24305;SDS011;12423;48.768;8.850;2022-10-16T06:22:02;4.18;;;1.65;;
24305;SDS011;12423;48.768;8.850;2022-10-16T06:24:04;4.22;;;1.48;;
24305;SDS011;12423;48.768;8.850;2022-10-16T06:26:06;3.53;;;1.60;;
24305;SDS011;12423;48.768;8.850;2022-10-16T06:28:08;5.07;;;1.73;;
24305;SDS011;12423;48.768;8.850;2022-10-16T06:30:09;4.60;;;1.70;;
24305;SDS011;12423;48.768;8.850;2022-10-16T06:32:10;7.63;;;1.63;;
24305;SDS011;12423;48.768;8.850;2022-10-16T06:34:11;5.38;;;1.88;;
24305;SDS011;12423;48.768;8.850;2022-10-16T06:36:14;4.05;;;2.10;;
24305;SDS011;12423;48.768;8.850;2022-10-16T06:38:16;6.55;;;2.08;;
24305;SDS011;12423;48.768;8.850;2022-10-16T06:40:17;4.55;;;2.05;;
24305;SDS011;12423;48.768;8.850;2022-10-16T06:42:18;2.70;;;1.60;;
24305;SDS011;12423;48.768;8.850;2022-10-16T06:44:19;4.75;;;1.42;;
24305;SDS011;12423;48.768;8.850;2022-10-16T06:46:21;2.45;;;1.38;;
24305;SDS011;12423;48.768;8.850;2022-10-16T06:48:24;5.30;;;1.73;;
24305;SDS011;12423;48.768;8.850;2022-10-16T06:50:26;3.45;;;1.27;;
24305;SDS011;12423;48.768;8.850;2022-10-16T06:52:30;5.00;;;1.52;;
24305;SDS011;12423;48.768;8.850;2022-10-16T06:54:31;4.60;;;1.50;;
24305;SDS011;12423;48.768;8.850;2022-10-16T06:56:32;3.97;;;1.60;;
24305;SDS011;12423;48.768;8.850;2022-10-16T06:58:34;5.32;;;2.65;;
24305;SDS011;12423;48.768;8.850;2022-10-16T07:00:35;9.07;;;3.83;;
24305;SDS011;12423;48.768;8.850;2022-10-16T07:02:36;8.90;;;3.20;;
24305;SDS011;12423;48.768;8.850;2022-10-16T07:04:37;7.15;;;2.80;;
24305;SDS011;12423;48.768;8.850;2022-10-16T07:06:38;8.35;;;3.33;;
24305;SDS011;12423;48.768;8.850;2022-10-16T07:08:40;5.90;;;3.00;;
24305;SDS011;12423;48.768;8.850;2022-10-16T07:10:42;7.90;;;3.00;;
24305;SDS011;12423;48.768;8.850;2022-10-16T07:12:43;5.43;;;2.85;;
24305;SDS011;12423;48.768;8.850;2022-10-16T07:14:45;4.68;;;2.80;;
24305;SDS011;12423;48.768;8.850;2022-10-16T07:16:46;5.57;;;2.53;;
24305;SDS011;12423;48.768;8.850;2022-10-16T07:18:48;4.78;;;2.20;;
24305;SDS011;12423;48.768;8.850;2022-10-16T07:20:50;6.43;;;2.22;;
24305;SDS011;12423;48.768;8.850;2022-10-16T07:22:51;5.20;;;2.20;;
24305;SDS011;12423;48.768;8.850;2022-10-16T07:24:52;8.98;;;2.20;;
24305;SDS011;12423;48.768;8.850;2022-10-16T07:26:53;5.53;;;1.95;;
24305;SDS011;12423;48.768;8.850;2022-10-16T07:28:54;5.13;;;1.90;;
24305;SDS011;12423;48.768;8.850;2022-10-16T07:30:55;4.88;;;1.60;;
24305;SDS011;12423;48.768;8.850;2022-10-16T07:33:00;3.47;;;1.30;;
24305;SDS011;12423;48.768;8.850;2022-10-16T07:35:01;4.50;;;1.60;;
24305;SDS011;12423;48.768;8.850;2022-10-16T07:37:02;2.50;;;1.45;;
24305;SDS011;12423;48.768;8.850;2022-10-16T07:39:03;5.25;;;1.48;;
24305;SDS011;12423;48.768;8.850;2022-10-16T07:41:05;5.10;;;1.83;;
24305;SDS011;12423;48.768;8.850;2022-10-16T07:43:08;3.10;;;1.20;;
24305;SDS011;12423;48.768;8.850;2022-10-16T07:45:09;2.92;;;1.13;;
24305;SDS011;12423;48.768;8.850;2022-10-16T07:47:10;1.42;;;0.90;;
24305;SDS011;12423;48.768;8.850;2022-10-16T07:49:11;6.30;;;1.00;;
24305;SDS011;12423;48.768;8.850;2022-10-16T07:51:13;4.43;;;1.10;;
24305;SDS011;12423;48.768;8.850;2022-10-16T07:53:18;2.03;;;1.20;;
24305;SDS011;12423;48.768;8.850;2022-10-16T07:55:19;2.08;;;0.90;;
24305;SDS011;12423;48.768;8.850;2022-10-16T07:57:20;2.22;;;1.00;;
24305;SDS011;12423;48.768;8.850;2022-10-16T07:59:21;4.97;;;1.00;;
24305;SDS011;12423;48.768;8.850;2022-10-16T08:01:22;2.90;;;0.80;;
24305;SDS011;12423;48.768;8.850;2022-10-16T08:03:23;1.92;;;0.93;;
24305;SDS011;12423;48.768;8.850;2022-10-16T08:05:24;4.53;;;0.90;;
24305;SDS011;12423;48.768;8.850;2022-10-16T08:07:25;2.90;;;1.10;;
24305;SDS011;12423;48.768;8.850;2022-10-16T08:09:26;2.72;;;1.05;;
24305;SDS011;12423;48.768;8.850;2022-10-16T08:11:27;2.15;;;1.08;;
24305;SDS011;12423;48.768;8.850;2022-10-16T08:13:28;2.95;;;1.20;;
24305;SDS011;12423;48.768;8.850;2022-10-16T08:15:29;7.47;;;1.60;;
24305;SDS011;12423;48.768;8.850;2022-10-16T08:17:30;4.97;;;1.33;;
24305;SDS011;12423;48.768;8.850;2022-10-16T08:19:31;4.85;;;1.42;;
24305;SDS011;12423;48.768;8.850;2022-10-16T08:21:34;2.65;;;1.30;;
24305;SDS011;12423;48.768;8.850;2022-10-16T08:23:35;6.45;;;2.10;;
24305;SDS011;12423;48.768;8.850;2022-10-16T08:25:36;3.30;;;2.10;;
24305;SDS011;12423;48.768;8.850;2022-10-16T08:27:38;3.63;;;1.33;;
24305;SDS011;12423;48.768;8.850;2022-10-16T08:29:39;1.65;;;1.15;;
24305;SDS011;12423;48.768;8.850;2022-10-16T08:31:40;4.80;;;1.60;;
24305;SDS011;12423;48.768;8.850;2022-10-16T08:33:42;5.57;;;1.40;;
24305;SDS011;12423;48.768;8.850;2022-10-16T08:35:50;4.55;;;1.83;;
24305;SDS011;12423;48.768;8.850;2022-10-16T08:37:54;5.75;;;1.95;;
24305;SDS011;12423;48.768;8.850;2022-10-16T08:39:55;4.47;;;2.38;;
24305;SDS011;12423;48.768;8.850;2022-10-16T08:42:11;15.10;;;2.17;;
24305;SDS011;12423;48.768;8.850;2022-10-16T08:44:35;3.53;;;1.63;;
24305;SDS011;12423;48.768;8.850;2022-10-16T08:49:19;4.15;;;1.65;;
24305;SDS011;12423;48.768;8.850;2022-10-16T08:51:26;4.95;;;1.40;;
24305;SDS011;12423;48.768;8.850;2022-10-16T08:53:35;3.67;;;1.40;;
24305;SDS011;12423;48.768;8.850;2022-10-16T08:55:43;10.25;;;1.38;;
24305;SDS011;12423;48.768;8.850;2022-10-16T08:57:50;2.75;;;1.23;;
24305;SDS011;12423;48.768;8.850;2022-10-16T08:59:51;2.28;;;1.20;;
24305;SDS011;12423;48.768;8.850;2022-10-16T09:01:52;4.35;;;1.40;;
24305;SDS011;12423;48.768;8.850;2022-10-16T09:08:51;7.35;;;1.52;;
24305;SDS011;12423;48.768;8.850;2022-10-16T09:11:12;4.22;;;1.30;;
24305;SDS011;12423;48.768;8.850;2022-10-16T09:15:46;4.70;;;1.50;;
24305;SDS011;12423;48.768;8.850;2022-10-16T09:20:09;1.75;;;0.90;;
24305;SDS011;12423;48.768;8.850;2022-10-16T09:22:14;1.98;;;1.00;;
24305;SDS011;12423;48.768;8.850;2022-10-16T09:24:21;3.75;;;1.23;;
24305;SDS011;12423;48.768;8.850;2022-10-16T09:26:24;3.42;;;1.00;;
24305;SDS011;12423;48.768;8.850;2022-10-16T09:28:26;2.45;;;1.20;;
24305;SDS011;12423;48.768;8.850;2022-10-16T09:30:27;3.47;;;1.10;;
24305;SDS011;12423;48.768;8.850;2022-10-16T09:32:33;3.30;;;1.33;;
24305;SDS011;12423;48.768;8.850;2022-10-16T09:34:34;5.22;;;0.88;;
24305;SDS011;12423;48.768;8.850;2022-10-16T09:36:42;4.45;;;1.20;;
24305;SDS011;12423;48.768;8.850;2022-10-16T09:38:46;2.40;;;1.20;;
24305;SDS011;12423;48.768;8.850;2022-10-16T09:40:47;4.55;;;1.00;;
24305;SDS011;12423;48.768;8.850;2022-10-16T09:42:48;2.80;;;1.00;;
24305;SDS011;12423;48.768;8.850;2022-10-16T09:44:50;2.08;;;1.10;;
24305;SDS011;12423;48.768;8.850;2022-10-16T09:49:22;2.25;;;0.98;;
24305;SDS011;12423;48.768;8.850;2022-10-16T09:51:34;4.40;;;1.10;;
24305;SDS011;12423;48.768;8.850;2022-10-16T09:53:43;2.00;;;1.00;;
24305;SDS011;12423;48.768;8.850;2022-10-16T09:55:49;1.55;;;0.75;;
24305;SDS011;12423;48.768;8.850;2022-10-16T09:57:54;3.75;;;1.85;;
24305;SDS011;12423;48.768;8.850;2022-10-16T09:59:57;2.85;;;1.10;;
24305;SDS011;12423;48.768;8.850;2022-10-16T10:02:01;4.30;;;1.23;;
24305;SDS011;12423;48.768;8.850;2022-10-16T10:04:11;4.20;;;2.15;;
24305;SDS011;12423;48.768;8.850;2022-10-16T10:06:17;5.45;;;2.88;;
24305;SDS011;12423;48.768;8.850;2022-10-16T10:08:22;2.42;;;0.90;;
24305;SDS011;12423;48.768;8.850;2022-10-16T10:12:28;3.42;;;1.20;;
24305;SDS011;12423;48.768;8.850;2022-10-16T10:14:39;4.43;;;1.30;;
24305;SDS011;12423;48.768;8.850;2022-10-16T10:16:45;7.53;;;2.35;;
24305;SDS011;12423;48.768;8.850;2022-10-16T10:18:47;1.92;;;1.10;;
24305;SDS011;12423;48.768;8.850;2022-10-16T10:21:02;3.60;;;1.42;;
24305;SDS011;12423;48.768;8.850;2022-10-16T10:32:53;4.50;;;1.38;;
24305;SDS011;12423;48.768;8.850;2022-10-16T10:35:15;4.35;;;1.23;;
24305;SDS011;12423;48.768;8.850;2022-10-16T10:37:36;2.85;;;1.40;;
24305;SDS011;12423;48.768;8.850;2022-10-16T10:39:57;2.75;;;1.10;;
24305;SDS011;12423;48.768;8.850;2022-10-16T10:48:53;1.52;;;0.80;;
24305;SDS011;12423;48.768;8.850;2022-10-16T10:53:18;2.60;;;0.97;;
24305;SDS011;12423;48.768;8.850;2022-10-16T10:55:31;3.15;;;1.20;;
24305;SDS011;12423;48.768;8.850;2022-10-16T11:00:20;1.67;;;0.88;;
24305;SDS011;12423;48.768;8.850;2022-10-16T11:02:34;4.25;;;1.00;;
24305;SDS011;12423;48.768;8.850;2022-10-16T11:04:50;1.35;;;0.63;;
24305;SDS011;12423;48.768;8.850;2022-10-16T11:07:00;1.77;;;0.88;;
24305;SDS011;12423;48.768;8.850;2022-10-16T11:11:55;1.50;;;0.98;;
24305;SDS011;12423;48.768;8.850;2022-10-16T11:14:06;5.97;;;1.10;;
24305;SDS011;12423;48.768;8.850;2022-10-16T11:16:21;2.08;;;1.00;;
24305;SDS011;12423;48.768;8.850;2022-10-16T11:18:30;3.20;;;1.13;;
24305;SDS011;12423;48.768;8.850;2022-10-16T11:20:51;2.92;;;1.00;;
24305;SDS011;12423;48.768;8.850;2022-10-16T11:22:56;3.60;;;0.90;;
24305;SDS011;12423;48.768;8.850;2022-10-16T11:27:15;1.90;;;1.15;;
24305;SDS011;12423;48.768;8.850;2022-10-16T11:29:22;2.60;;;1.40;;
24305;SDS011;12423;48.768;8.850;2022-10-16T11:31:37;6.07;;;1.17;;
24305;SDS011;12423;48.768;8.850;2022-10-16T11:36:19;3.58;;;1.20;;
24305;SDS011;12423;48.768;8.850;2022-10-16T11:41:15;3.25;;;0.90;;
24305;SDS011;12423;48.768;8.850;2022-10-16T11:43:28;1.83;;;0.80;;
24305;SDS011;12423;48.768;8.850;2022-10-16T11:45:45;2.65;;;1.10;;
24305;SDS011;12423;48.768;8.850;2022-10-16T11:48:32;2.50;;;0.90;;
24305;SDS011;12423;48.768;8.850;2022-10-16T11:50:32;3.72;;;1.20;;
24305;SDS011;12423;48.768;8.850;2022-10-16T11:55:02;3.78;;;1.02;;
24305;SDS011;12423;48.768;8.850;2022-10-16T11:57:16;3.15;;;1.25;;
24305;SDS011;12423;48.768;8.850;2022-10-16T12:01:51;4.20;;;0.98;;
24305;SDS011;12423;48.768;8.850;2022-10-16T12:08:15;3.65;;;1.13;;
24305;SDS011;12423;48.768;8.850;2022-10-16T12:10:27;4.53;;;1.10;;
24305;SDS011;12423;48.768;8.850;2022-10-16T12:14:37;5.78;;;1.25;;
24305;SDS011;12423;48.768;8.850;2022-10-16T12:19:03;2.63;;;1.00;;
24305;SDS011;12423;48.768;8.850;2022-10-16T12:21:11;4.65;;;1.15;;
24305;SDS011;12423;48.768;8.850;2022-10-16T12:23:19;4.40;;;1.05;;
24305;SDS011;12423;48.768;8.850;2022-10-16T12:25:24;4.45;;;1.27;;
24305;SDS011;12423;48.768;8.850;2022-10-16T12:27:31;4.03;;;0.90;;
24305;SDS011;12423;48.768;8.850;2022-10-16T12:29:34;2.72;;;0.90;;
24305;SDS011;12423;48.768;8.850;2022-10-16T12:31:48;4.25;;;0.90;;
24305;SDS011;12423;48.768;8.850;2022-10-16T12:36:00;1.73;;;0.98;;
24305;SDS011;12423;48.768;8.850;2022-10-16T12:38:05;2.75;;;0.90;;
24305;SDS011;12423;48.768;8.850;2022-10-16T12:40:15;3.10;;;0.90;;
24305;SDS011;12423;48.768;8.850;2022-10-16T12:44:26;2.47;;;0.90;;
24305;SDS011;12423;48.768;8.850;2022-10-16T12:46:35;1.75;;;0.80;;
24305;SDS011;12423;48.768;8.850;2022-10-16T12:48:40;3.80;;;1.00;;
24305;SDS011;12423;48.768;8.850;2022-10-16T12:50:45;4.18;;;1.17;;
24305;SDS011;12423;48.768;8.850;2022-10-16T12:52:46;4.47;;;1.30;;
24305;SDS011;12423;48.768;8.850;2022-10-16T12:54:47;2.63;;;0.90;;
24305;SDS011;12423;48.768;8.850;2022-10-16T12:56:51;2.75;;;1.13;;
24305;SDS011;12423;48.768;8.850;2022-10-16T12:59:00;2.65;;;0.95;;
24305;SDS011;12423;48.768;8.850;2022-10-16T13:01:37;2.90;;;1.00;;
24305;SDS011;12423;48.768;8.850;2022-10-16T13:09:04;2.05;;;1.15;;
24305;SDS011;12423;48.768;8.850;2022-10-16T13:11:31;3.67;;;1.50;;
24305;SDS011;12423;48.768;8.850;2022-10-16T13:14:01;1.95;;;1.10;;
24305;SDS011;12423;48.768;8.850;2022-10-16T13:23:20;4.95;;;1.10;;
24305;SDS011;12423;48.768;8.850;2022-10-16T13:28:08;2.35;;;1.00;;
24305;SDS011;12423;48.768;8.850;2022-10-16T13:30:18;4.30;;;1.10;;
24305;SDS011;12423;48.768;8.850;2022-10-16T13:32:26;2.45;;;1.25;;
24305;SDS011;12423;48.768;8.850;2022-10-16T13:34:28;2.40;;;1.20;;
24305;SDS011;12423;48.768;8.850;2022-10-16T13:36:34;14.07;;;1.38;;
24305;SDS011;12423;48.768;8.850;2022-10-16T13:38:47;3.50;;;1.15;;
24305;SDS011;12423;48.768;8.850;2022-10-16T13:40:52;4.05;;;1.40;;
24305;SDS011;12423;48.768;8.850;2022-10-16T13:43:01;2.22;;;0.90;;
24305;SDS011;12423;48.768;8.850;2022-10-16T13:45:02;3.05;;;1.10;;
24305;SDS011;12423;48.768;8.850;2022-10-16T13:47:03;5.03;;;1.50;;
24305;SDS011;12423;48.768;8.850;2022-10-16T13:49:14;3.38;;;1.42;;
24305;SDS011;12423;48.768;8.850;2022-10-16T13:51:17;4.22;;;1.10;;
24305;SDS011;12423;48.768;8.850;2022-10-16T13:53:19;2.30;;;1.25;;
24305;SDS011;12423;48.768;8.850;2022-10-16T13:55:20;4.32;;;1.40;;
24305;SDS011;12423;48.768;8.850;2022-10-16T13:57:22;4.45;;;1.30;;
24305;SDS011;12423;48.768;8.850;2022-10-16T13:59:25;3.88;;;1.30;;
24305;SDS011;12423;48.768;8.850;2022-10-16T14:01:33;5.45;;;1.17;;
24305;SDS011;12423;48.768;8.850;2022-10-16T14:03:43;4.05;;;1.17;;
24305;SDS011;12423;48.768;8.850;2022-10-16T14:05:49;4.22;;;1.40;;